Blue, Texas
Current Conditions -  °F | °C
As of 12:15 AM on Monday 22 Dec 2014 (Local Time) from KGYB Reporting Station
Overcast Overcast  
Wind Chill: 56°   Ceiling: 800
Heat Index: 56°   Visibility: 10mi
Dew Point: 54°   Wind: 7mph
Humidity: 91%   Direction: 200°SSW
Pressure: 29.87"   Gusts: NA
Location:  30.4292°N, 97.0703°W
Report Text: KGYB 220615Z AUTO 20006KT 10SM OVC008 14/12 A2987 RMK AO2 T01350120
Loading
Personal Weather Stations






























Interactive Weather Map New forecast layout! Learn more

10-Day Weather Forecast

Advertisements
Track Severe Weather on mobile